Terminal Aerodrome Forecast
Issued by NWS

Home | Current Version | Previous Version | Graphics & Text | Print | Product List | Glossary On
Versions: 1 2 3 4 5 6 7 8 9 10 11 12 13 14
703
FTUS43 KMPX 202346
TAFRWF
TAF
KRWF 202346Z 2100/2124 34007KT P6SM SCT070 BKN150
     FM210600 02004KT P6SM BKN100
     FM211500 11005KT P6SM BKN050
     FM212200 35004KT P6SM BKN050=

USA.gov is the U.S. government's official web portal to all federal, state and local government web resources and services.